sensor_id;sensor_type;location;lat;lon;timestamp;pressure;altitude;pressure_sealevel;temperature;humidity
53671;BME280;39571;48.612;8.088;2023-05-25T08:21:23;100324.91;;;16.61;100.00
53671;BME280;39571;48.612;8.088;2023-05-25T08:38:15;100326.69;;;17.18;100.00
53671;BME280;39571;48.612;8.088;2023-05-25T08:47:48;100325.44;;;17.57;100.00
53671;BME280;39571;48.612;8.088;2023-05-25T08:50:18;100331.75;;;17.80;100.00
53671;BME280;39571;48.612;8.088;2023-05-25T08:52:44;100325.63;;;18.04;100.00
53671;BME280;39571;48.612;8.088;2023-05-25T08:55:13;100325.63;;;18.04;100.00
53671;BME280;39571;48.612;8.088;2023-05-25T08:57:53;100324.19;;;18.20;100.00
53671;BME280;39571;48.612;8.088;2023-05-25T09:00:24;100322.94;;;18.30;100.00
53671;BME280;39571;48.612;8.088;2023-05-25T09:02:58;100328.13;;;18.33;100.00
53671;BME280;39571;48.612;8.088;2023-05-25T09:05:25;100327.09;;;18.37;100.00
53671;BME280;39571;48.612;8.088;2023-05-25T09:07:51;100321.47;;;18.45;100.00
53671;BME280;39571;48.612;8.088;2023-05-25T09:10:19;100326.78;;;18.45;100.00
53671;BME280;39571;48.612;8.088;2023-05-25T09:12:45;100328.97;;;18.58;100.00
53671;BME280;39571;48.612;8.088;2023-05-25T09:15:10;100335.22;;;18.57;100.00
53671;BME280;39571;48.612;8.088;2023-05-25T09:17:36;100330.59;;;18.62;100.00
53671;BME280;39571;48.612;8.088;2023-05-25T09:20:02;100335.56;;;18.72;100.00
53671;BME280;39571;48.612;8.088;2023-05-25T09:22:28;100328.03;;;18.83;100.00
53671;BME280;39571;48.612;8.088;2023-05-25T09:24:53;100329.53;;;18.90;100.00
53671;BME280;39571;48.612;8.088;2023-05-25T09:27:21;100329.41;;;18.93;100.00
53671;BME280;39571;48.612;8.088;2023-05-25T09:29:50;100330.00;;;19.01;100.00
53671;BME280;39571;48.612;8.088;2023-05-25T09:32:16;100330.56;;;19.09;100.00
53671;BME280;39571;48.612;8.088;2023-05-25T09:34:42;100332.59;;;19.24;100.00
53671;BME280;39571;48.612;8.088;2023-05-25T09:37:12;100331.06;;;19.18;100.00
53671;BME280;39571;48.612;8.088;2023-05-25T09:39:42;100322.00;;;19.24;100.00
53671;BME280;39571;48.612;8.088;2023-05-25T09:42:08;100314.47;;;19.35;100.00
53671;BME280;39571;48.612;8.088;2023-05-25T09:44:33;100318.25;;;19.51;100.00
53671;BME280;39571;48.612;8.088;2023-05-25T09:46:58;100309.00;;;19.61;100.00
53671;BME280;39571;48.612;8.088;2023-05-25T09:49:25;100304.81;;;19.76;100.00
53671;BME280;39571;48.612;8.088;2023-05-25T09:51:50;100308.09;;;19.83;100.00
53671;BME280;39571;48.612;8.088;2023-05-25T09:54:16;100305.56;;;19.80;100.00
53671;BME280;39571;48.612;8.088;2023-05-25T09:56:41;100299.06;;;19.87;100.00
53671;BME280;39571;48.612;8.088;2023-05-25T09:59:07;100308.22;;;19.80;98.79
53671;BME280;39571;48.612;8.088;2023-05-25T10:01:33;100317.38;;;19.73;100.00
53671;BME280;39571;48.612;8.088;2023-05-25T10:03:59;100305.28;;;19.65;100.00
53671;BME280;39571;48.612;8.088;2023-05-25T10:06:26;100304.03;;;19.74;100.00
53671;BME280;39571;48.612;8.088;2023-05-25T10:08:52;100309.97;;;19.81;100.00
53671;BME280;39571;48.612;8.088;2023-05-25T10:11:20;100302.28;;;19.95;100.00
53671;BME280;39571;48.612;8.088;2023-05-25T10:13:47;100295.91;;;19.99;100.00
53671;BME280;39571;48.612;8.088;2023-05-25T10:16:15;100296.41;;;20.07;100.00
53671;BME280;39571;48.612;8.088;2023-05-25T10:18:53;100298.59;;;20.17;100.00
53671;BME280;39571;48.612;8.088;2023-05-25T10:21:20;100311.06;;;20.37;100.00
53671;BME280;39571;48.612;8.088;2023-05-25T10:23:50;100300.44;;;20.37;100.00
53671;BME280;39571;48.612;8.088;2023-05-25T10:26:22;100299.22;;;20.44;100.00
53671;BME280;39571;48.612;8.088;2023-05-25T10:28:55;100299.06;;;20.47;100.00
53671;BME280;39571;48.612;8.088;2023-05-25T10:31:25;100297.09;;;20.32;97.27
53671;BME280;39571;48.612;8.088;2023-05-25T10:33:54;100303.44;;;20.48;100.00
53671;BME280;39571;48.612;8.088;2023-05-25T10:36:21;100303.28;;;20.51;99.78
53671;BME280;39571;48.612;8.088;2023-05-25T10:38:50;100303.19;;;20.54;99.37
53671;BME280;39571;48.612;8.088;2023-05-25T10:41:17;100295.25;;;20.53;98.55
53671;BME280;39571;48.612;8.088;2023-05-25T10:43:43;100297.28;;;20.66;100.00
53671;BME280;39571;48.612;8.088;2023-05-25T10:46:09;100295.94;;;20.77;100.00
53671;BME280;39571;48.612;8.088;2023-05-25T10:51:02;100304.66;;;20.99;95.44
53671;BME280;39571;48.612;8.088;2023-05-25T10:53:27;100309.22;;;20.77;93.44
53671;BME280;39571;48.612;8.088;2023-05-25T10:58:19;100316.19;;;20.60;96.62
53671;BME280;39571;48.612;8.088;2023-05-25T11:04:34;100316.09;;;20.43;99.09
53671;BME280;39571;48.612;8.088;2023-05-25T11:09:04;100312.91;;;20.35;100.00
53671;BME280;39571;48.612;8.088;2023-05-25T11:14:22;100313.56;;;20.20;100.00
53671;BME280;39571;48.612;8.088;2023-05-25T11:17:13;100316.41;;;20.15;100.00
53671;BME280;39571;48.612;8.088;2023-05-25T11:19:46;100308.50;;;20.14;100.00
53671;BME280;39571;48.612;8.088;2023-05-25T11:22:22;100308.63;;;20.11;100.00
53671;BME280;39571;48.612;8.088;2023-05-25T11:24:51;100314.69;;;20.14;100.00
53671;BME280;39571;48.612;8.088;2023-05-25T11:27:25;100309.19;;;20.19;100.00
53671;BME280;39571;48.612;8.088;2023-05-25T11:29:51;100302.41;;;20.32;100.00
53671;BME280;39571;48.612;8.088;2023-05-25T11:32:17;100315.97;;;20.46;100.00
53671;BME280;39571;48.612;8.088;2023-05-25T11:34:44;100309.63;;;20.49;100.00
53671;BME280;39571;48.612;8.088;2023-05-25T11:37:18;100312.22;;;20.50;100.00
53671;BME280;39571;48.612;8.088;2023-05-25T11:39:49;100309.72;;;20.47;100.00
